ユジノサハリンスク の空港の天気 - METARとTAF

ホムトヴォ空港(ユジノサハリンスク) ( UHSS / UUS ) - ロシア ユジノサハリンスク
飛行場実況気象(Metar)
観測時間05/28 09:30 VLAT (05/27 23:30 UTC)
風向・風速北北東 2m/s
視程10km以上
天気現象弱いしゅう雨
少しの雲 雲底高度 1010m
気温9℃
湿度87%
気圧1002hPa
METARUHSS 272330Z 02002MPS 9999 -SHRA FEW033CB 09/07 Q1002 R01/290060 NOSIG RMK MT OBSC QFE750/1000
過去の天気等 Google飛行場航空写真 Wunderground天気予報

過去48時間のMETAR

飛行場予報(TAF)
発表時間: 5/28 09:00 VLAT (5/27 23:00 UTC)
予報対象時間: 28日10時 VLAT ~ 29日16時 VLAT
風向・風速北 3m/s
視程10km以上
全天の8割程度の積乱雲 雲底高度 910m
TAF UHSS 272300Z 2800/2906 36003MPS 9999 BKN030CB